sensor_id;sensor_type;location;lat;lon;timestamp;temperature;humidity
11666;DHT22;5889;51.350;6.708;2023-02-01T00:02:12;6.30;99.90
11666;DHT22;5889;51.350;6.708;2023-02-01T00:04:42;6.30;99.90
11666;DHT22;5889;51.350;6.708;2023-02-01T00:07:09;6.30;99.90
11666;DHT22;5889;51.350;6.708;2023-02-01T00:09:36;6.30;99.90
11666;DHT22;5889;51.350;6.708;2023-02-01T00:12:03;6.30;99.90
11666;DHT22;5889;51.350;6.708;2023-02-01T00:14:30;6.30;99.90
11666;DHT22;5889;51.350;6.708;2023-02-01T00:17:03;6.30;99.90
11666;DHT22;5889;51.350;6.708;2023-02-01T00:19:30;6.30;99.90
11666;DHT22;5889;51.350;6.708;2023-02-01T00:21:59;6.30;99.90
11666;DHT22;5889;51.350;6.708;2023-02-01T00:24:26;6.40;99.90
11666;DHT22;5889;51.350;6.708;2023-02-01T00:26:53;6.40;99.90
11666;DHT22;5889;51.350;6.708;2023-02-01T00:29:21;6.40;99.90
11666;DHT22;5889;51.350;6.708;2023-02-01T00:31:50;6.40;99.90
11666;DHT22;5889;51.350;6.708;2023-02-01T00:34:18;6.40;99.90
11666;DHT22;5889;51.350;6.708;2023-02-01T00:36:46;6.40;99.90
11666;DHT22;5889;51.350;6.708;2023-02-01T00:39:15;6.40;99.90
11666;DHT22;5889;51.350;6.708;2023-02-01T00:41:42;6.40;99.90
11666;DHT22;5889;51.350;6.708;2023-02-01T00:44:09;6.40;99.90
11666;DHT22;5889;51.350;6.708;2023-02-01T00:46:36;6.50;99.90
11666;DHT22;5889;51.350;6.708;2023-02-01T00:49:04;6.40;99.90
11666;DHT22;5889;51.350;6.708;2023-02-01T00:51:32;6.40;99.90
11666;DHT22;5889;51.350;6.708;2023-02-01T00:53:59;6.50;99.90
11666;DHT22;5889;51.350;6.708;2023-02-01T00:56:28;6.40;99.90
11666;DHT22;5889;51.350;6.708;2023-02-01T00:58:55;6.40;99.90
11666;DHT22;5889;51.350;6.708;2023-02-01T01:01:24;6.40;99.90
11666;DHT22;5889;51.350;6.708;2023-02-01T01:03:53;6.40;99.90
11666;DHT22;5889;51.350;6.708;2023-02-01T01:06:22;6.40;99.90
11666;DHT22;5889;51.350;6.708;2023-02-01T01:08:51;6.40;99.90
11666;DHT22;5889;51.350;6.708;2023-02-01T01:11:21;6.40;99.90
11666;DHT22;5889;51.350;6.708;2023-02-01T01:13:51;6.40;99.90
11666;DHT22;5889;51.350;6.708;2023-02-01T01:16:19;6.40;99.90
11666;DHT22;5889;51.350;6.708;2023-02-01T01:18:47;6.40;99.90
11666;DHT22;5889;51.350;6.708;2023-02-01T01:21:15;6.40;99.90
11666;DHT22;5889;51.350;6.708;2023-02-01T01:23:43;6.40;99.90
11666;DHT22;5889;51.350;6.708;2023-02-01T01:26:12;6.40;99.90
11666;DHT22;5889;51.350;6.708;2023-02-01T01:28:40;6.40;99.90
11666;DHT22;5889;51.350;6.708;2023-02-01T01:31:10;6.40;99.90
11666;DHT22;5889;51.350;6.708;2023-02-01T01:33:37;6.30;99.90
11666;DHT22;5889;51.350;6.708;2023-02-01T01:36:05;6.30;99.90
11666;DHT22;5889;51.350;6.708;2023-02-01T01:38:33;6.30;99.90
11666;DHT22;5889;51.350;6.708;2023-02-01T01:41:00;6.20;99.90
11666;DHT22;5889;51.350;6.708;2023-02-01T01:43:52;6.20;99.90
11666;DHT22;5889;51.350;6.708;2023-02-01T01:46:22;6.20;99.90
11666;DHT22;5889;51.350;6.708;2023-02-01T01:48:54;6.20;99.90
11666;DHT22;5889;51.350;6.708;2023-02-01T01:51:24;6.10;99.90
11666;DHT22;5889;51.350;6.708;2023-02-01T01:53:59;6.10;99.90
11666;DHT22;5889;51.350;6.708;2023-02-01T01:56:28;6.10;99.90
11666;DHT22;5889;51.350;6.708;2023-02-01T01:58:56;6.10;99.90
11666;DHT22;5889;51.350;6.708;2023-02-01T02:01:25;6.00;99.90
11666;DHT22;5889;51.350;6.708;2023-02-01T02:03:53;6.00;99.90
11666;DHT22;5889;51.350;6.708;2023-02-01T02:06:30;6.00;99.90
11666;DHT22;5889;51.350;6.708;2023-02-01T02:08:59;6.00;99.90
11666;DHT22;5889;51.350;6.708;2023-02-01T02:11:26;5.90;99.90
11666;DHT22;5889;51.350;6.708;2023-02-01T02:13:54;5.90;99.90
11666;DHT22;5889;51.350;6.708;2023-02-01T02:16:56;5.90;99.90
11666;DHT22;5889;51.350;6.708;2023-02-01T02:25:54;5.80;99.90
11666;DHT22;5889;51.350;6.708;2023-02-01T02:31:54;5.70;99.90
11666;DHT22;5889;51.350;6.708;2023-02-01T02:34:29;5.60;99.90
11666;DHT22;5889;51.350;6.708;2023-02-01T02:37:16;5.50;99.90
11666;DHT22;5889;51.350;6.708;2023-02-01T02:39:53;5.50;99.90
11666;DHT22;5889;51.350;6.708;2023-02-01T02:42:28;5.50;99.90
11666;DHT22;5889;51.350;6.708;2023-02-01T02:45:18;5.50;99.90
11666;DHT22;5889;51.350;6.708;2023-02-01T02:48:11;5.50;99.90
11666;DHT22;5889;51.350;6.708;2023-02-01T02:50:46;5.40;99.90
11666;DHT22;5889;51.350;6.708;2023-02-01T02:53:37;5.40;99.90
11666;DHT22;5889;51.350;6.708;2023-02-01T02:56:24;5.40;99.90
11666;DHT22;5889;51.350;6.708;2023-02-01T02:59:10;5.30;99.90
11666;DHT22;5889;51.350;6.708;2023-02-01T03:01:56;5.30;99.90
11666;DHT22;5889;51.350;6.708;2023-02-01T03:04:40;5.30;99.90
11666;DHT22;5889;51.350;6.708;2023-02-01T03:07:14;5.30;99.90
11666;DHT22;5889;51.350;6.708;2023-02-01T03:09:45;5.30;99.90
11666;DHT22;5889;51.350;6.708;2023-02-01T03:12:15;5.30;99.90
11666;DHT22;5889;51.350;6.708;2023-02-01T03:15:03;5.30;99.90
11666;DHT22;5889;51.350;6.708;2023-02-01T03:17:39;5.30;99.90
11666;DHT22;5889;51.350;6.708;2023-02-01T03:20:10;5.40;99.90
11666;DHT22;5889;51.350;6.708;2023-02-01T03:22:41;5.40;99.90
11666;DHT22;5889;51.350;6.708;2023-02-01T03:25:12;5.40;99.90
11666;DHT22;5889;51.350;6.708;2023-02-01T03:27:42;5.40;99.90
11666;DHT22;5889;51.350;6.708;2023-02-01T03:30:18;5.50;99.90
11666;DHT22;5889;51.350;6.708;2023-02-01T03:32:48;5.50;99.90
11666;DHT22;5889;51.350;6.708;2023-02-01T03:35:28;5.50;99.90
11666;DHT22;5889;51.350;6.708;2023-02-01T03:38:02;5.50;99.90
11666;DHT22;5889;51.350;6.708;2023-02-01T03:40:33;5.50;99.90
11666;DHT22;5889;51.350;6.708;2023-02-01T03:43:03;5.50;99.90
11666;DHT22;5889;51.350;6.708;2023-02-01T03:45:36;5.60;99.90
11666;DHT22;5889;51.350;6.708;2023-02-01T03:48:07;5.60;99.90
11666;DHT22;5889;51.350;6.708;2023-02-01T03:50:36;5.60;99.90
11666;DHT22;5889;51.350;6.708;2023-02-01T03:53:08;5.60;99.90
11666;DHT22;5889;51.350;6.708;2023-02-01T03:55:37;5.60;99.90
11666;DHT22;5889;51.350;6.708;2023-02-01T03:58:07;5.60;99.90
11666;DHT22;5889;51.350;6.708;2023-02-01T04:00:34;5.60;99.90
11666;DHT22;5889;51.350;6.708;2023-02-01T04:03:03;5.60;99.90
11666;DHT22;5889;51.350;6.708;2023-02-01T04:05:31;5.60;99.90
11666;DHT22;5889;51.350;6.708;2023-02-01T04:07:58;5.60;99.90
11666;DHT22;5889;51.350;6.708;2023-02-01T04:10:27;5.60;99.90
11666;DHT22;5889;51.350;6.708;2023-02-01T04:12:54;5.60;99.90
11666;DHT22;5889;51.350;6.708;2023-02-01T04:15:21;5.60;99.90
11666;DHT22;5889;51.350;6.708;2023-02-01T04:17:48;5.60;99.90
11666;DHT22;5889;51.350;6.708;2023-02-01T04:20:15;5.60;99.90
11666;DHT22;5889;51.350;6.708;2023-02-01T04:22:43;5.50;99.90
11666;DHT22;5889;51.350;6.708;2023-02-01T04:25:11;5.50;99.90
11666;DHT22;5889;51.350;6.708;2023-02-01T04:27:39;5.50;99.90
11666;DHT22;5889;51.350;6.708;2023-02-01T04:30:08;5.50;99.90
11666;DHT22;5889;51.350;6.708;2023-02-01T04:32:35;5.50;99.90
11666;DHT22;5889;51.350;6.708;2023-02-01T04:35:03;5.40;99.90
11666;DHT22;5889;51.350;6.708;2023-02-01T04:37:30;5.40;99.90
11666;DHT22;5889;51.350;6.708;2023-02-01T04:39:57;5.40;99.90
11666;DHT22;5889;51.350;6.708;2023-02-01T04:42:24;5.40;99.90
11666;DHT22;5889;51.350;6.708;2023-02-01T04:44:52;5.40;99.90
11666;DHT22;5889;51.350;6.708;2023-02-01T04:47:19;5.40;99.90
11666;DHT22;5889;51.350;6.708;2023-02-01T04:49:46;5.40;99.90
11666;DHT22;5889;51.350;6.708;2023-02-01T04:52:13;5.40;99.90
11666;DHT22;5889;51.350;6.708;2023-02-01T04:54:40;5.40;99.90
11666;DHT22;5889;51.350;6.708;2023-02-01T04:57:07;5.40;99.90
11666;DHT22;5889;51.350;6.708;2023-02-01T04:59:35;5.40;99.90
11666;DHT22;5889;51.350;6.708;2023-02-01T05:02:03;5.40;99.90
11666;DHT22;5889;51.350;6.708;2023-02-01T05:04:30;5.40;99.90
11666;DHT22;5889;51.350;6.708;2023-02-01T05:07:12;5.40;99.90
11666;DHT22;5889;51.350;6.708;2023-02-01T05:09:39;5.30;99.90
11666;DHT22;5889;51.350;6.708;2023-02-01T05:12:06;5.30;99.90
11666;DHT22;5889;51.350;6.708;2023-02-01T05:14:50;5.30;99.90
11666;DHT22;5889;51.350;6.708;2023-02-01T05:17:19;5.30;99.90
11666;DHT22;5889;51.350;6.708;2023-02-01T05:19:46;5.30;99.90
11666;DHT22;5889;51.350;6.708;2023-02-01T05:22:13;5.30;99.90
11666;DHT22;5889;51.350;6.708;2023-02-01T05:24:41;5.20;99.90
11666;DHT22;5889;51.350;6.708;2023-02-01T05:27:08;5.20;99.90
11666;DHT22;5889;51.350;6.708;2023-02-01T05:29:35;5.20;99.90
11666;DHT22;5889;51.350;6.708;2023-02-01T05:32:02;5.10;99.90
11666;DHT22;5889;51.350;6.708;2023-02-01T05:34:31;5.10;99.90
11666;DHT22;5889;51.350;6.708;2023-02-01T05:36:58;5.10;99.90
11666;DHT22;5889;51.350;6.708;2023-02-01T05:39:25;5.10;99.90
11666;DHT22;5889;51.350;6.708;2023-02-01T05:41:52;5.10;99.90
11666;DHT22;5889;51.350;6.708;2023-02-01T05:44:19;5.10;99.90
11666;DHT22;5889;51.350;6.708;2023-02-01T05:46:46;5.10;99.90
11666;DHT22;5889;51.350;6.708;2023-02-01T05:49:13;5.10;99.90
11666;DHT22;5889;51.350;6.708;2023-02-01T05:51:42;5.00;99.90
11666;DHT22;5889;51.350;6.708;2023-02-01T05:54:09;5.00;99.90
11666;DHT22;5889;51.350;6.708;2023-02-01T05:56:36;5.00;99.90
11666;DHT22;5889;51.350;6.708;2023-02-01T05:59:03;5.00;99.90
11666;DHT22;5889;51.350;6.708;2023-02-01T06:01:30;5.00;99.90
11666;DHT22;5889;51.350;6.708;2023-02-01T06:03:57;5.00;99.90
11666;DHT22;5889;51.350;6.708;2023-02-01T06:06:24;5.00;99.90
11666;DHT22;5889;51.350;6.708;2023-02-01T06:08:52;5.00;99.90
11666;DHT22;5889;51.350;6.708;2023-02-01T06:11:20;5.00;99.90
11666;DHT22;5889;51.350;6.708;2023-02-01T06:13:47;5.10;99.90
11666;DHT22;5889;51.350;6.708;2023-02-01T06:16:14;5.10;99.90
11666;DHT22;5889;51.350;6.708;2023-02-01T06:18:41;5.10;99.90
11666;DHT22;5889;51.350;6.708;2023-02-01T06:21:08;5.10;99.90
11666;DHT22;5889;51.350;6.708;2023-02-01T06:23:35;5.10;99.90
11666;DHT22;5889;51.350;6.708;2023-02-01T06:26:05;5.20;99.90
11666;DHT22;5889;51.350;6.708;2023-02-01T06:28:33;5.20;99.90
11666;DHT22;5889;51.350;6.708;2023-02-01T06:31:04;5.30;99.90
11666;DHT22;5889;51.350;6.708;2023-02-01T06:33:32;5.30;99.90
11666;DHT22;5889;51.350;6.708;2023-02-01T06:36:00;5.30;99.90
11666;DHT22;5889;51.350;6.708;2023-02-01T06:38:29;5.30;99.90
11666;DHT22;5889;51.350;6.708;2023-02-01T06:40:57;5.30;99.90
11666;DHT22;5889;51.350;6.708;2023-02-01T06:43:26;5.40;99.90
11666;DHT22;5889;51.350;6.708;2023-02-01T06:45:58;5.40;99.90
11666;DHT22;5889;51.350;6.708;2023-02-01T06:48:26;5.40;99.90
11666;DHT22;5889;51.350;6.708;2023-02-01T06:50:53;5.40;99.90
11666;DHT22;5889;51.350;6.708;2023-02-01T06:53:20;5.40;99.90
11666;DHT22;5889;51.350;6.708;2023-02-01T06:55:54;5.40;99.90
11666;DHT22;5889;51.350;6.708;2023-02-01T06:58:23;5.50;99.90
11666;DHT22;5889;51.350;6.708;2023-02-01T07:00:51;5.50;99.90
11666;DHT22;5889;51.350;6.708;2023-02-01T07:03:19;5.50;99.90
11666;DHT22;5889;51.350;6.708;2023-02-01T07:05:46;5.50;99.90
11666;DHT22;5889;51.350;6.708;2023-02-01T07:08:14;5.60;99.90
11666;DHT22;5889;51.350;6.708;2023-02-01T07:10:41;5.60;99.90
11666;DHT22;5889;51.350;6.708;2023-02-01T07:13:08;5.60;99.90
11666;DHT22;5889;51.350;6.708;2023-02-01T07:15:35;5.60;99.90
11666;DHT22;5889;51.350;6.708;2023-02-01T07:18:03;5.60;99.90
11666;DHT22;5889;51.350;6.708;2023-02-01T07:20:30;5.70;99.90
11666;DHT22;5889;51.350;6.708;2023-02-01T07:22:57;5.70;99.90
11666;DHT22;5889;51.350;6.708;2023-02-01T07:25:25;5.70;99.90
11666;DHT22;5889;51.350;6.708;2023-02-01T07:27:52;5.70;99.90
11666;DHT22;5889;51.350;6.708;2023-02-01T07:30:19;5.70;99.90
11666;DHT22;5889;51.350;6.708;2023-02-01T07:32:46;5.70;99.90
11666;DHT22;5889;51.350;6.708;2023-02-01T07:35:14;5.70;99.90
11666;DHT22;5889;51.350;6.708;2023-02-01T07:37:41;5.70;99.90
11666;DHT22;5889;51.350;6.708;2023-02-01T07:40:09;5.70;99.90
11666;DHT22;5889;51.350;6.708;2023-02-01T07:42:37;5.80;99.90
11666;DHT22;5889;51.350;6.708;2023-02-01T07:45:04;5.80;99.90
11666;DHT22;5889;51.350;6.708;2023-02-01T07:47:32;5.80;99.90
11666;DHT22;5889;51.350;6.708;2023-02-01T07:49:59;5.90;99.90
11666;DHT22;5889;51.350;6.708;2023-02-01T07:52:29;5.90;99.90
11666;DHT22;5889;51.350;6.708;2023-02-01T07:54:56;5.90;99.90
11666;DHT22;5889;51.350;6.708;2023-02-01T07:57:23;5.90;99.90
11666;DHT22;5889;51.350;6.708;2023-02-01T07:59:50;6.00;99.90
11666;DHT22;5889;51.350;6.708;2023-02-01T08:02:34;6.00;99.90
11666;DHT22;5889;51.350;6.708;2023-02-01T08:05:01;5.90;99.90
11666;DHT22;5889;51.350;6.708;2023-02-01T08:07:29;5.90;99.90
11666;DHT22;5889;51.350;6.708;2023-02-01T08:09:56;5.90;99.90
11666;DHT22;5889;51.350;6.708;2023-02-01T08:12:24;5.90;99.90
11666;DHT22;5889;51.350;6.708;2023-02-01T08:14:51;5.90;99.90
11666;DHT22;5889;51.350;6.708;2023-02-01T08:17:18;5.90;99.90
11666;DHT22;5889;51.350;6.708;2023-02-01T08:19:45;5.90;99.90
11666;DHT22;5889;51.350;6.708;2023-02-01T08:22:12;5.90;99.90
11666;DHT22;5889;51.350;6.708;2023-02-01T08:24:41;5.90;99.90
11666;DHT22;5889;51.350;6.708;2023-02-01T08:27:08;5.90;99.90
11666;DHT22;5889;51.350;6.708;2023-02-01T08:29:35;5.90;99.90
11666;DHT22;5889;51.350;6.708;2023-02-01T08:32:02;5.90;99.90
11666;DHT22;5889;51.350;6.708;2023-02-01T08:34:29;6.00;99.90
11666;DHT22;5889;51.350;6.708;2023-02-01T08:36:56;6.00;99.90
11666;DHT22;5889;51.350;6.708;2023-02-01T08:39:26;6.00;99.90
11666;DHT22;5889;51.350;6.708;2023-02-01T08:41:55;6.00;99.90
11666;DHT22;5889;51.350;6.708;2023-02-01T08:44:39;6.00;99.90
11666;DHT22;5889;51.350;6.708;2023-02-01T08:47:06;6.00;99.90
11666;DHT22;5889;51.350;6.708;2023-02-01T08:49:33;6.10;99.90
11666;DHT22;5889;51.350;6.708;2023-02-01T08:52:00;6.10;99.90
11666;DHT22;5889;51.350;6.708;2023-02-01T08:54:27;6.20;99.90
11666;DHT22;5889;51.350;6.708;2023-02-01T08:56:55;6.10;99.90
11666;DHT22;5889;51.350;6.708;2023-02-01T08:59:22;6.20;99.90
11666;DHT22;5889;51.350;6.708;2023-02-01T09:01:49;6.10;99.90
11666;DHT22;5889;51.350;6.708;2023-02-01T09:04:17;6.10;99.90
11666;DHT22;5889;51.350;6.708;2023-02-01T09:06:44;6.20;99.90
11666;DHT22;5889;51.350;6.708;2023-02-01T09:09:11;6.20;99.90
11666;DHT22;5889;51.350;6.708;2023-02-01T09:11:38;6.20;99.90
11666;DHT22;5889;51.350;6.708;2023-02-01T09:14:06;6.30;99.90
11666;DHT22;5889;51.350;6.708;2023-02-01T09:16:33;6.20;99.90
11666;DHT22;5889;51.350;6.708;2023-02-01T09:19:00;6.20;99.90
11666;DHT22;5889;51.350;6.708;2023-02-01T09:21:28;6.20;99.90
11666;DHT22;5889;51.350;6.708;2023-02-01T09:23:54;6.20;99.90
11666;DHT22;5889;51.350;6.708;2023-02-01T09:26:21;6.20;99.90
11666;DHT22;5889;51.350;6.708;2023-02-01T09:28:48;6.20;99.90
11666;DHT22;5889;51.350;6.708;2023-02-01T09:31:17;6.30;99.90
11666;DHT22;5889;51.350;6.708;2023-02-01T09:33:45;6.30;99.90
11666;DHT22;5889;51.350;6.708;2023-02-01T09:36:12;6.40;99.90
11666;DHT22;5889;51.350;6.708;2023-02-01T09:38:39;6.40;99.90
11666;DHT22;5889;51.350;6.708;2023-02-01T09:41:10;6.40;99.90
11666;DHT22;5889;51.350;6.708;2023-02-01T09:43:52;6.40;99.90
11666;DHT22;5889;51.350;6.708;2023-02-01T09:46:26;6.40;99.90
11666;DHT22;5889;51.350;6.708;2023-02-01T09:48:55;6.40;99.90
11666;DHT22;5889;51.350;6.708;2023-02-01T09:51:28;6.50;99.90
11666;DHT22;5889;51.350;6.708;2023-02-01T09:54:01;6.50;99.90
11666;DHT22;5889;51.350;6.708;2023-02-01T09:56:35;6.60;99.90
11666;DHT22;5889;51.350;6.708;2023-02-01T09:59:18;6.60;99.90
11666;DHT22;5889;51.350;6.708;2023-02-01T10:01:48;6.60;99.90
11666;DHT22;5889;51.350;6.708;2023-02-01T10:04:17;6.70;99.90
11666;DHT22;5889;51.350;6.708;2023-02-01T10:07:02;6.70;99.90
11666;DHT22;5889;51.350;6.708;2023-02-01T10:09:44;6.70;99.90
11666;DHT22;5889;51.350;6.708;2023-02-01T10:12:47;6.80;99.90
11666;DHT22;5889;51.350;6.708;2023-02-01T10:15:28;6.90;99.90
11666;DHT22;5889;51.350;6.708;2023-02-01T10:18:15;6.90;99.90
11666;DHT22;5889;51.350;6.708;2023-02-01T10:20:56;6.90;99.90
11666;DHT22;5889;51.350;6.708;2023-02-01T10:23:42;7.00;99.90
11666;DHT22;5889;51.350;6.708;2023-02-01T10:26:18;7.10;99.90
11666;DHT22;5889;51.350;6.708;2023-02-01T10:28:49;7.10;99.90
11666;DHT22;5889;51.350;6.708;2023-02-01T10:31:16;7.20;99.90
11666;DHT22;5889;51.350;6.708;2023-02-01T10:33:47;7.30;99.90
11666;DHT22;5889;51.350;6.708;2023-02-01T10:36:17;7.40;99.90
11666;DHT22;5889;51.350;6.708;2023-02-01T10:38:46;7.30;99.90
11666;DHT22;5889;51.350;6.708;2023-02-01T10:41:15;7.30;99.90
11666;DHT22;5889;51.350;6.708;2023-02-01T10:43:44;7.30;99.90
11666;DHT22;5889;51.350;6.708;2023-02-01T10:46:12;7.30;99.90
11666;DHT22;5889;51.350;6.708;2023-02-01T10:48:39;7.30;99.90
11666;DHT22;5889;51.350;6.708;2023-02-01T10:51:13;7.30;99.90
11666;DHT22;5889;51.350;6.708;2023-02-01T10:53:47;7.40;99.90
11666;DHT22;5889;51.350;6.708;2023-02-01T10:56:21;7.40;99.90
11666;DHT22;5889;51.350;6.708;2023-02-01T10:58:49;7.40;99.90
11666;DHT22;5889;51.350;6.708;2023-02-01T11:01:19;7.40;99.90
11666;DHT22;5889;51.350;6.708;2023-02-01T11:03:53;7.50;99.90
11666;DHT22;5889;51.350;6.708;2023-02-01T11:06:33;7.50;99.90
11666;DHT22;5889;51.350;6.708;2023-02-01T11:09:14;7.50;99.90
11666;DHT22;5889;51.350;6.708;2023-02-01T11:11:54;7.50;99.90
11666;DHT22;5889;51.350;6.708;2023-02-01T11:14:32;7.60;99.90
11666;DHT22;5889;51.350;6.708;2023-02-01T11:17:02;7.60;99.90
11666;DHT22;5889;51.350;6.708;2023-02-01T11:19:38;7.60;99.90
11666;DHT22;5889;51.350;6.708;2023-02-01T11:22:06;7.70;99.90
11666;DHT22;5889;51.350;6.708;2023-02-01T11:24:35;7.70;99.90
11666;DHT22;5889;51.350;6.708;2023-02-01T11:27:05;7.70;99.90
11666;DHT22;5889;51.350;6.708;2023-02-01T11:29:36;7.70;99.90
11666;DHT22;5889;51.350;6.708;2023-02-01T11:32:04;7.60;99.90
11666;DHT22;5889;51.350;6.708;2023-02-01T11:34:36;7.60;99.90
11666;DHT22;5889;51.350;6.708;2023-02-01T11:37:15;7.60;99.90
11666;DHT22;5889;51.350;6.708;2023-02-01T11:39:53;7.70;99.90
11666;DHT22;5889;51.350;6.708;2023-02-01T11:42:21;7.70;99.90
11666;DHT22;5889;51.350;6.708;2023-02-01T11:44:48;7.70;99.90
11666;DHT22;5889;51.350;6.708;2023-02-01T11:47:20;7.70;99.90
11666;DHT22;5889;51.350;6.708;2023-02-01T11:49:49;7.70;99.90
11666;DHT22;5889;51.350;6.708;2023-02-01T11:52:29;7.70;99.90
11666;DHT22;5889;51.350;6.708;2023-02-01T11:55:07;7.80;99.90
11666;DHT22;5889;51.350;6.708;2023-02-01T11:57:51;7.70;99.90
11666;DHT22;5889;51.350;6.708;2023-02-01T12:00:41;7.70;99.90
11666;DHT22;5889;51.350;6.708;2023-02-01T12:03:37;7.60;99.90
11666;DHT22;5889;51.350;6.708;2023-02-01T12:06:13;7.70;99.90
11666;DHT22;5889;51.350;6.708;2023-02-01T12:09:01;7.70;99.90
11666;DHT22;5889;51.350;6.708;2023-02-01T12:11:47;7.70;99.90
11666;DHT22;5889;51.350;6.708;2023-02-01T12:14:41;7.70;99.90
11666;DHT22;5889;51.350;6.708;2023-02-01T12:17:25;7.80;99.90
11666;DHT22;5889;51.350;6.708;2023-02-01T12:20:04;7.70;99.90
11666;DHT22;5889;51.350;6.708;2023-02-01T12:22:44;7.70;99.90
11666;DHT22;5889;51.350;6.708;2023-02-01T12:25:30;7.70;99.90
11666;DHT22;5889;51.350;6.708;2023-02-01T12:31:19;7.70;99.90
11666;DHT22;5889;51.350;6.708;2023-02-01T12:34:04;7.70;99.90
11666;DHT22;5889;51.350;6.708;2023-02-01T12:36:38;7.70;99.90
11666;DHT22;5889;51.350;6.708;2023-02-01T12:39:16;7.70;99.90
11666;DHT22;5889;51.350;6.708;2023-02-01T12:41:58;7.80;99.90
11666;DHT22;5889;51.350;6.708;2023-02-01T12:44:42;7.80;99.90
11666;DHT22;5889;51.350;6.708;2023-02-01T12:47:16;7.80;99.90
11666;DHT22;5889;51.350;6.708;2023-02-01T12:49:50;7.80;99.90
11666;DHT22;5889;51.350;6.708;2023-02-01T12:52:25;7.80;99.90
11666;DHT22;5889;51.350;6.708;2023-02-01T12:54:57;7.80;99.90
11666;DHT22;5889;51.350;6.708;2023-02-01T12:57:28;7.80;99.90
11666;DHT22;5889;51.350;6.708;2023-02-01T13:00:05;7.80;99.90
11666;DHT22;5889;51.350;6.708;2023-02-01T13:02:40;7.80;99.90
11666;DHT22;5889;51.350;6.708;2023-02-01T13:05:16;7.80;99.90
11666;DHT22;5889;51.350;6.708;2023-02-01T13:07:48;7.80;99.90
11666;DHT22;5889;51.350;6.708;2023-02-01T13:10:20;7.80;99.90
11666;DHT22;5889;51.350;6.708;2023-02-01T13:12:54;7.80;99.90
11666;DHT22;5889;51.350;6.708;2023-02-01T13:15:26;7.80;99.90
11666;DHT22;5889;51.350;6.708;2023-02-01T13:17:58;7.80;99.90
11666;DHT22;5889;51.350;6.708;2023-02-01T13:20:30;7.80;99.90
11666;DHT22;5889;51.350;6.708;2023-02-01T13:23:01;7.80;99.90
11666;DHT22;5889;51.350;6.708;2023-02-01T13:25:34;7.70;99.90
11666;DHT22;5889;51.350;6.708;2023-02-01T13:28:11;7.70;99.90
11666;DHT22;5889;51.350;6.708;2023-02-01T13:30:54;7.80;99.90
11666;DHT22;5889;51.350;6.708;2023-02-01T13:33:40;7.80;99.90
11666;DHT22;5889;51.350;6.708;2023-02-01T13:36:45;7.80;99.90
11666;DHT22;5889;51.350;6.708;2023-02-01T13:39:46;7.80;99.90
11666;DHT22;5889;51.350;6.708;2023-02-01T13:42:20;7.70;99.90
11666;DHT22;5889;51.350;6.708;2023-02-01T13:44:51;7.70;99.90
11666;DHT22;5889;51.350;6.708;2023-02-01T13:47:24;7.70;99.90
11666;DHT22;5889;51.350;6.708;2023-02-01T13:49:52;7.70;99.90
11666;DHT22;5889;51.350;6.708;2023-02-01T13:52:32;7.80;99.90
11666;DHT22;5889;51.350;6.708;2023-02-01T13:55:03;7.80;99.90
11666;DHT22;5889;51.350;6.708;2023-02-01T13:57:42;7.90;99.90
11666;DHT22;5889;51.350;6.708;2023-02-01T14:00:25;7.90;99.90
11666;DHT22;5889;51.350;6.708;2023-02-01T14:03:09;8.00;99.90
11666;DHT22;5889;51.350;6.708;2023-02-01T14:06:01;8.00;99.90
11666;DHT22;5889;51.350;6.708;2023-02-01T14:08:46;8.00;99.90
11666;DHT22;5889;51.350;6.708;2023-02-01T14:11:49;8.10;99.90
11666;DHT22;5889;51.350;6.708;2023-02-01T14:14:44;8.00;99.90
11666;DHT22;5889;51.350;6.708;2023-02-01T14:17:37;8.00;99.90
11666;DHT22;5889;51.350;6.708;2023-02-01T14:23:27;8.00;99.90
11666;DHT22;5889;51.350;6.708;2023-02-01T14:26:18;8.00;99.90
11666;DHT22;5889;51.350;6.708;2023-02-01T14:28:57;8.00;99.90
11666;DHT22;5889;51.350;6.708;2023-02-01T14:31:52;8.10;99.90
11666;DHT22;5889;51.350;6.708;2023-02-01T14:34:26;8.10;99.90
11666;DHT22;5889;51.350;6.708;2023-02-01T14:36:57;8.10;99.90
11666;DHT22;5889;51.350;6.708;2023-02-01T14:39:36;8.10;99.90
11666;DHT22;5889;51.350;6.708;2023-02-01T14:42:13;8.10;99.90
11666;DHT22;5889;51.350;6.708;2023-02-01T14:44:42;8.10;99.90
11666;DHT22;5889;51.350;6.708;2023-02-01T14:47:32;8.10;99.90
11666;DHT22;5889;51.350;6.708;2023-02-01T14:50:31;8.10;99.90
11666;DHT22;5889;51.350;6.708;2023-02-01T14:53:14;8.10;99.90
11666;DHT22;5889;51.350;6.708;2023-02-01T14:55:44;8.10;99.90
11666;DHT22;5889;51.350;6.708;2023-02-01T14:58:20;8.10;99.90
11666;DHT22;5889;51.350;6.708;2023-02-01T15:00:52;8.20;99.90
11666;DHT22;5889;51.350;6.708;2023-02-01T15:03:30;8.10;99.90
11666;DHT22;5889;51.350;6.708;2023-02-01T15:06:01;8.10;99.90
11666;DHT22;5889;51.350;6.708;2023-02-01T15:08:33;8.10;99.90
11666;DHT22;5889;51.350;6.708;2023-02-01T15:11:02;8.10;99.90
11666;DHT22;5889;51.350;6.708;2023-02-01T15:13:32;8.10;99.90
11666;DHT22;5889;51.350;6.708;2023-02-01T15:16:04;8.10;99.90
11666;DHT22;5889;51.350;6.708;2023-02-01T15:18:32;8.10;99.90
11666;DHT22;5889;51.350;6.708;2023-02-01T15:21:02;8.10;99.90
11666;DHT22;5889;51.350;6.708;2023-02-01T15:23:30;8.10;99.90
11666;DHT22;5889;51.350;6.708;2023-02-01T15:25:57;8.10;99.90
11666;DHT22;5889;51.350;6.708;2023-02-01T15:28:25;8.00;99.90
11666;DHT22;5889;51.350;6.708;2023-02-01T15:30:58;8.10;99.90
11666;DHT22;5889;51.350;6.708;2023-02-01T15:33:26;8.00;99.90
11666;DHT22;5889;51.350;6.708;2023-02-01T15:35:54;8.10;99.90
11666;DHT22;5889;51.350;6.708;2023-02-01T15:38:37;8.10;99.90
11666;DHT22;5889;51.350;6.708;2023-02-01T15:41:11;8.10;99.90
11666;DHT22;5889;51.350;6.708;2023-02-01T15:43:42;8.10;99.90
11666;DHT22;5889;51.350;6.708;2023-02-01T15:46:13;8.00;99.90
11666;DHT22;5889;51.350;6.708;2023-02-01T15:48:46;8.00;99.90
11666;DHT22;5889;51.350;6.708;2023-02-01T15:51:18;8.00;99.90
11666;DHT22;5889;51.350;6.708;2023-02-01T15:53:52;8.00;99.90
11666;DHT22;5889;51.350;6.708;2023-02-01T15:56:28;8.00;99.90
11666;DHT22;5889;51.350;6.708;2023-02-01T15:58:57;8.00;99.90
11666;DHT22;5889;51.350;6.708;2023-02-01T16:01:25;8.00;99.90
11666;DHT22;5889;51.350;6.708;2023-02-01T16:04:03;8.00;99.90
11666;DHT22;5889;51.350;6.708;2023-02-01T16:06:32;8.00;99.90
11666;DHT22;5889;51.350;6.708;2023-02-01T16:09:09;8.00;99.90
11666;DHT22;5889;51.350;6.708;2023-02-01T16:11:46;8.00;99.90
11666;DHT22;5889;51.350;6.708;2023-02-01T16:14:13;8.00;99.90
11666;DHT22;5889;51.350;6.708;2023-02-01T16:16:40;8.00;99.90
11666;DHT22;5889;51.350;6.708;2023-02-01T16:19:07;8.00;99.90
11666;DHT22;5889;51.350;6.708;2023-02-01T16:21:35;8.00;99.90
11666;DHT22;5889;51.350;6.708;2023-02-01T16:24:03;7.90;99.90
11666;DHT22;5889;51.350;6.708;2023-02-01T16:26:31;7.90;99.90
11666;DHT22;5889;51.350;6.708;2023-02-01T16:28:59;7.90;99.90
11666;DHT22;5889;51.350;6.708;2023-02-01T16:31:29;7.90;99.90
11666;DHT22;5889;51.350;6.708;2023-02-01T16:33:57;7.90;99.90
11666;DHT22;5889;51.350;6.708;2023-02-01T16:36:24;7.80;99.90
11666;DHT22;5889;51.350;6.708;2023-02-01T16:38:52;7.80;99.90
11666;DHT22;5889;51.350;6.708;2023-02-01T16:41:22;7.80;99.90
11666;DHT22;5889;51.350;6.708;2023-02-01T16:43:52;7.80;99.90
11666;DHT22;5889;51.350;6.708;2023-02-01T16:46:21;7.80;99.90
11666;DHT22;5889;51.350;6.708;2023-02-01T16:48:52;7.80;99.90
11666;DHT22;5889;51.350;6.708;2023-02-01T16:51:20;7.80;99.90